Time;durP1;ratioP1;P1;durP2;ratioP2;P2;SDS_P1;SDS_P2;PMS_P1;PMS_P2;Temp;Humidity;BMP_temperature;BMP_pressure;BME280_temperature;BME280_humidity;BME280_pressure;Samples;Min_cycle;Max_cycle;Signal;HPM_P1;HPM_P2
2022/06/15 00:01:32;;;;;;;0.00;0.00;;;18.60;82.60;;;;;;4939091;29;20517;-74
2022/06/15 00:04:00;;;;;;;0.00;0.00;;;18.50;82.20;;;;;;4923204;29;20063;-78
2022/06/15 00:06:28;;;;;;;;;;;18.50;82.20;;;;;;4922995;29;20087;-74
2022/06/15 00:08:56;;;;;;;0.00;0.00;;;18.50;82.70;;;;;;4938035;29;20190;-74
2022/06/15 00:11:24;;;;;;;0.00;0.00;;;18.50;82.40;;;;;;4922056;29;20028;-77
2022/06/15 00:13:53;;;;;;;0.00;0.00;;;18.50;82.70;;;;;;4922177;29;20067;-73
2022/06/15 00:16:20;;;;;;;0.00;0.00;;;18.40;82.90;;;;;;4923154;29;20091;-74
2022/06/15 00:18:47;;;;;;;0.00;0.00;;;18.40;83.00;;;;;;4939376;29;20024;-78
2022/06/15 00:21:15;;;;;;;0.00;0.00;;;18.40;83.10;;;;;;4922358;29;20070;-74
2022/06/15 00:23:41;;;;;;;0.00;0.00;;;18.30;82.80;;;;;;4938643;29;20119;-76
2022/06/15 00:26:07;;;;;;;0.00;0.00;;;18.30;82.80;;;;;;4923316;29;20039;-74
2022/06/15 00:28:33;;;;;;;0.00;0.00;;;18.30;82.50;;;;;;4938365;29;20047;-74
2022/06/15 00:31:00;;;;;;;0.00;0.00;;;18.30;82.90;;;;;;4939725;29;20059;-75
2022/06/15 00:33:27;;;;;;;0.00;0.00;;;18.30;82.90;;;;;;4938453;29;20032;-78
2022/06/15 00:36:02;;;;;;;0.00;0.00;;;18.20;83.40;;;;;;4939456;29;20019;-76
2022/06/15 00:38:36;;;;;;;0.00;0.00;;;18.20;83.40;;;;;;4939179;29;20039;-75
2022/06/15 00:41:04;;;;;;;0.00;0.00;;;18.20;83.40;;;;;;4938757;29;20031;-75
2022/06/15 00:43:32;;;;;;;0.00;0.00;;;18.20;83.30;;;;;;4913405;29;20031;-75
2022/06/15 00:45:59;;;;;;;0.00;0.00;;;18.20;83.90;;;;;;4938773;29;20023;-74
2022/06/15 00:48:25;;;;;;;0.00;0.00;;;18.20;84.10;;;;;;4921199;29;20087;-74
2022/06/15 00:50:51;;;;;;;0.00;0.00;;;18.20;83.40;;;;;;4938854;29;20020;-75
2022/06/15 00:53:17;;;;;;;0.00;0.00;;;18.10;84.20;;;;;;4939044;29;20107;-75
2022/06/15 00:55:43;;;;;;;0.00;0.00;;;18.10;84.00;;;;;;4938829;29;20091;-74
2022/06/15 00:58:10;;;;;;;0.00;0.00;;;18.10;83.90;;;;;;4938923;29;20024;-76
2022/06/15 01:00:37;;;;;;;0.00;0.00;;;18.10;84.20;;;;;;4922455;29;20047;-75
2022/06/15 01:03:02;;;;;;;0.00;0.00;;;18.10;84.10;;;;;;4921681;29;20046;-75
2022/06/15 01:05:45;;;;;;;0.00;0.00;;;18.10;84.60;;;;;;4942758;29;20323;-75
2022/06/15 01:08:14;;;;;;;0.00;0.00;;;18.00;84.50;;;;;;4945401;28;20048;-75
2022/06/15 01:11:23;;;;;;;0.00;0.00;;;18.00;84.10;;;;;;4946034;29;20027;-78
2022/06/15 01:14:00;;;;;;;0.00;0.00;;;17.90;84.90;;;;;;4887291;29;20031;-75
2022/06/15 01:16:47;;;;;;;0.00;0.00;;;18.00;84.40;;;;;;4944233;29;20050;-75
2022/06/15 01:19:51;;;;;;;0.00;0.00;;;17.90;83.80;;;;;;4946387;29;20063;-75
2022/06/15 01:22:35;;;;;;;0.00;0.00;;;17.90;83.60;;;;;;4950613;29;20099;-74
2022/06/15 01:25:19;;;;;;;0.00;0.00;;;17.90;84.20;;;;;;4931020;29;20067;-74
2022/06/15 01:28:13;;;;;;;0.00;0.00;;;17.80;84.40;;;;;;4945095;29;20027;-74
2022/06/15 01:31:16;;;;;;;0.00;0.00;;;17.90;84.40;;;;;;4938748;29;20283;-75
2022/06/15 01:34:00;;;;;;;0.00;0.00;;;17.80;84.70;;;;;;4936525;29;20045;-75
2022/06/15 01:36:36;;;;;;;0.00;0.00;;;17.80;84.70;;;;;;4946018;29;20019;-75
2022/06/15 01:39:32;;;;;;;0.00;0.00;;;17.80;84.30;;;;;;4949931;28;20108;-75
2022/06/15 01:42:00;;;;;;;0.00;0.00;;;17.70;84.10;;;;;;4945124;29;20031;-77
2022/06/15 01:44:34;;;;;;;0.00;0.00;;;17.80;84.30;;;;;;4947463;29;20027;-75
2022/06/15 01:47:04;;;;;;;0.00;0.00;;;17.70;84.20;;;;;;4950647;29;20409;-75
2022/06/15 01:49:36;;;;;;;0.00;0.00;;;17.70;84.70;;;;;;4929163;29;20407;-77
2022/06/15 01:52:05;;;;;;;0.00;0.00;;;17.70;85.10;;;;;;4933854;29;20025;-76
2022/06/15 01:54:42;;;;;;;0.00;0.00;;;17.70;85.10;;;;;;4946767;29;20035;-75
2022/06/15 01:57:09;;;;;;;0.00;0.00;;;17.80;85.30;;;;;;4930505;29;20140;-74
2022/06/15 01:59:44;;;;;;;0.00;0.00;;;17.80;86.50;;;;;;4946893;29;20023;-75
2022/06/15 02:02:51;;;;;;;0.00;0.00;;;17.70;85.90;;;;;;4945804;29;20066;-77
2022/06/15 02:06:14;;;;;;;0.00;0.00;;;17.70;86.30;;;;;;4906628;29;20050;-75
2022/06/15 02:09:00;;;;;;;0.00;0.00;;;17.70;86.80;;;;;;4904225;29;20045;-77
2022/06/15 02:11:36;;;;;;;0.00;0.00;;;17.70;87.50;;;;;;4937942;29;20038;-74
2022/06/15 02:14:19;;;;;;;0.00;0.00;;;17.70;87.90;;;;;;4930933;29;20030;-76
2022/06/15 02:16:57;;;;;;;0.00;0.00;;;17.60;88.00;;;;;;4928302;29;20115;-74
2022/06/15 02:19:39;;;;;;;0.00;0.00;;;17.60;87.60;;;;;;4948067;29;20019;-77
2022/06/15 02:22:09;;;;;;;0.00;0.00;;;17.60;87.60;;;;;;4948460;29;20310;-74
2022/06/15 02:24:35;;;;;;;0.00;0.00;;;17.50;88.30;;;;;;4946001;29;20059;-74
2022/06/15 02:27:05;;;;;;;0.00;0.00;;;17.50;88.10;;;;;;4930538;29;20656;-75
2022/06/15 02:29:34;;;;;;;0.00;0.00;;;17.50;87.90;;;;;;4930775;29;20101;-73
2022/06/15 02:32:00;;;;;;;0.00;0.00;;;17.50;88.20;;;;;;4944263;29;20024;-77
2022/06/15 02:34:27;;;;;;;0.00;0.00;;;17.50;87.70;;;;;;4933847;29;20028;-77
2022/06/15 02:36:54;;;;;;;0.00;0.00;;;17.40;87.00;;;;;;4942593;29;20036;-74
2022/06/15 02:39:20;;;;;;;0.00;0.00;;;17.40;87.40;;;;;;4949475;29;20390;-74
2022/06/15 02:41:46;;;;;;;0.00;0.00;;;17.40;87.40;;;;;;4927379;29;20096;-75
2022/06/15 02:44:16;;;;;;;0.00;0.00;;;17.40;88.00;;;;;;4946257;29;20027;-75
2022/06/15 02:46:46;;;;;;;0.00;0.00;;;17.40;88.70;;;;;;4946315;29;20031;-74
2022/06/15 02:49:13;;;;;;;0.00;0.00;;;17.40;89.10;;;;;;4943694;29;20302;-75
2022/06/15 02:51:42;;;;;;;0.00;0.00;;;17.30;89.50;;;;;;4945428;29;20070;-74
2022/06/15 02:54:35;;;;;;;0.00;0.00;;;17.30;89.30;;;;;;4942431;29;20047;-74
2022/06/15 02:57:01;;;;;;;0.00;0.00;;;17.40;89.60;;;;;;4942925;29;20024;-75
2022/06/15 02:59:27;;;;;;;0.00;0.00;;;17.30;89.60;;;;;;4948308;29;20055;-74
2022/06/15 03:01:55;;;;;;;0.00;0.00;;;17.30;89.80;;;;;;4943669;29;20167;-74
2022/06/15 03:04:21;;;;;;;0.00;0.00;;;17.30;89.40;;;;;;4943529;29;20058;-74
2022/06/15 03:06:46;;;;;;;0.00;0.00;;;17.20;88.90;;;;;;4929672;29;20056;-73
2022/06/15 03:09:12;;;;;;;0.00;0.00;;;17.30;88.90;;;;;;4926437;29;20050;-74
2022/06/15 03:11:40;;;;;;;0.00;0.00;;;17.20;88.90;;;;;;4924755;29;20071;-75
2022/06/15 03:14:06;;;;;;;0.00;0.00;;;17.20;89.10;;;;;;4921850;29;20024;-74
2022/06/15 03:16:32;;;;;;;0.00;0.00;;;17.20;88.80;;;;;;4926907;29;20039;-74
2022/06/15 03:18:58;;;;;;;0.00;0.00;;;17.20;88.90;;;;;;4923161;29;20024;-78
2022/06/15 03:21:23;;;;;;;0.00;0.00;;;17.30;89.70;;;;;;4926274;29;20036;-74
2022/06/15 03:23:49;;;;;;;0.00;0.00;;;17.20;89.90;;;;;;4930098;29;20028;-76
2022/06/15 03:26:15;;;;;;;0.00;0.00;;;17.20;90.10;;;;;;4918848;29;20040;-74
2022/06/15 03:28:41;;;;;;;0.00;0.00;;;17.20;90.10;;;;;;4928002;29;20046;-75
2022/06/15 03:31:07;;;;;;;0.00;0.00;;;17.20;89.90;;;;;;4931290;29;20075;-75
2022/06/15 03:33:34;;;;;;;0.00;0.00;;;17.20;90.20;;;;;;4924167;29;20094;-76
2022/06/15 03:35:59;;;;;;;0.00;0.00;;;17.20;90.00;;;;;;4910146;29;20028;-75
2022/06/15 03:38:27;;;;;;;0.00;0.00;;;17.20;89.90;;;;;;4909018;29;20059;-76
2022/06/15 03:40:54;;;;;;;0.00;0.00;;;17.20;90.20;;;;;;4920217;29;20017;-78
2022/06/15 03:43:20;;;;;;;0.00;0.00;;;17.20;90.00;;;;;;4917081;29;20480;-75
2022/06/15 03:45:46;;;;;;;0.00;0.00;;;17.20;90.20;;;;;;4926881;29;20819;-75
2022/06/15 03:48:12;;;;;;;0.00;0.00;;;17.20;90.10;;;;;;4924388;29;20296;-76
2022/06/15 03:50:39;;;;;;;0.00;0.00;;;17.20;90.10;;;;;;4929448;29;20024;-77
2022/06/15 03:53:06;;;;;;;0.00;0.00;;;17.20;90.10;;;;;;4910154;29;20233;-75
2022/06/15 03:55:32;;;;;;;0.00;0.00;;;17.20;90.30;;;;;;4916337;29;20243;-75
2022/06/15 03:57:58;;;;;;;0.00;0.00;;;17.20;90.70;;;;;;4914491;29;20028;-75
2022/06/15 04:00:26;;;;;;;0.00;0.00;;;17.20;90.80;;;;;;4925775;29;20023;-75
2022/06/15 04:02:53;;;;;;;0.00;0.00;;;17.20;90.90;;;;;;4928034;29;20032;-74
2022/06/15 04:05:22;;;;;;;0.00;0.00;;;17.20;91.10;;;;;;4931411;29;20123;-76
2022/06/15 04:10:33;;;;;;;0.00;0.00;;;17.30;91.40;;;;;;4930830;29;20042;-76
2022/06/15 04:12:58;;;;;;;0.00;0.00;;;17.30;91.40;;;;;;4930367;29;20115;-75
2022/06/15 04:15:24;;;;;;;0.00;0.00;;;17.30;91.60;;;;;;4932247;29;20038;-76
2022/06/15 04:17:50;;;;;;;0.00;0.00;;;17.30;91.50;;;;;;4933910;29;20055;-78
2022/06/15 04:20:33;;;;;;;0.00;0.00;;;17.30;91.40;;;;;;4915077;29;20027;-76
2022/06/15 04:23:07;;;;;;;0.00;0.00;;;17.30;91.50;;;;;;4924087;29;20067;-75
2022/06/15 04:25:36;;;;;;;0.00;0.00;;;17.40;91.40;;;;;;4929017;29;20065;-75
2022/06/15 04:28:02;;;;;;;0.00;0.00;;;17.40;91.30;;;;;;4931517;29;20024;-75
2022/06/15 04:30:28;;;;;;;0.00;0.00;;;17.40;91.40;;;;;;4909995;29;20019;-75
2022/06/15 04:32:54;;;;;;;0.00;0.00;;;17.40;91.40;;;;;;4911613;29;20317;-75
2022/06/15 04:35:20;;;;;;;0.00;0.00;;;17.40;91.20;;;;;;4907265;29;20107;-79
2022/06/15 04:37:45;;;;;;;0.00;0.00;;;17.40;91.30;;;;;;4925563;29;20028;-76
2022/06/15 04:40:15;;;;;;;0.00;0.00;;;17.40;91.20;;;;;;4907574;29;20044;-74
2022/06/15 04:42:42;;;;;;;0.00;0.00;;;17.50;91.40;;;;;;4928851;29;20034;-76
2022/06/15 04:45:13;;;;;;;0.00;0.00;;;17.40;91.80;;;;;;4932900;29;20023;-76
2022/06/15 04:47:38;;;;;;;0.00;0.00;;;17.50;91.50;;;;;;4931735;29;20032;-75
2022/06/15 04:50:06;;;;;;;0.00;0.00;;;17.50;91.60;;;;;;4922583;29;20027;-76
2022/06/15 04:52:32;;;;;;;0.00;0.00;;;17.50;91.50;;;;;;4913878;29;20020;-75
2022/06/15 04:54:57;;;;;;;0.00;0.00;;;17.50;91.50;;;;;;4930791;29;20375;-75
2022/06/15 04:57:23;;;;;;;0.00;0.00;;;17.50;91.60;;;;;;4931107;29;20027;-75
2022/06/15 04:59:49;;;;;;;0.00;0.00;;;17.60;91.70;;;;;;4933787;29;20075;-77
2022/06/15 05:02:15;;;;;;;0.00;0.00;;;17.60;91.60;;;;;;4930675;29;20657;-75
2022/06/15 05:04:41;;;;;;;0.00;0.00;;;17.60;91.50;;;;;;4915842;29;20035;-77
2022/06/15 05:07:07;;;;;;;0.00;0.00;;;17.60;91.60;;;;;;4928639;29;20035;-77
2022/06/15 05:09:33;;;;;;;0.00;0.00;;;17.60;91.20;;;;;;4907742;29;20032;-75
2022/06/15 05:11:59;;;;;;;0.00;0.00;;;17.60;91.50;;;;;;4918442;29;20024;-76
2022/06/15 05:14:25;;;;;;;0.00;0.00;;;17.50;91.60;;;;;;4931845;29;20032;-75
2022/06/15 05:16:51;;;;;;;0.00;0.00;;;17.50;91.80;;;;;;4929526;29;20095;-76
2022/06/15 05:19:16;;;;;;;0.00;0.00;;;17.60;91.90;;;;;;4930232;29;20019;-78
2022/06/15 05:21:44;;;;;;;0.00;0.00;;;17.60;91.90;;;;;;4911446;29;20032;-76
2022/06/15 05:24:10;;;;;;;0.00;0.00;;;17.60;91.70;;;;;;4918247;29;20028;-75
2022/06/15 05:26:36;;;;;;;0.00;0.00;;;17.60;91.50;;;;;;4929320;29;20090;-74
2022/06/15 05:29:02;;;;;;;0.00;0.00;;;17.60;91.60;;;;;;4924558;29;20020;-74
2022/06/15 05:31:28;;;;;;;0.00;0.00;;;17.60;91.60;;;;;;4930042;29;20039;-74
2022/06/15 05:33:56;;;;;;;0.00;0.00;;;17.60;91.50;;;;;;4931380;29;20024;-75
2022/06/15 05:36:28;;;;;;;0.00;0.00;;;17.70;91.50;;;;;;4926489;29;20106;-72
2022/06/15 05:38:54;;;;;;;0.00;0.00;;;17.70;91.60;;;;;;4928934;29;20020;-72
2022/06/15 05:41:20;;;;;;;0.00;0.00;;;17.70;91.40;;;;;;4931176;29;20375;-76
2022/06/15 05:46:23;;;;;;;;;;;17.80;91.70;;;;;;4927879;29;20040;-72
2022/06/15 05:48:49;;;;;;;0.00;0.00;;;17.80;91.90;;;;;;4921008;29;19903;-76
2022/06/15 05:51:14;;;;;;;0.00;0.00;;;17.80;91.80;;;;;;4925149;29;20188;-75
2022/06/15 05:53:40;;;;;;;0.00;0.00;;;17.80;91.80;;;;;;4911572;29;20110;-74
2022/06/15 05:56:06;;;;;;;0.00;0.00;;;17.90;91.90;;;;;;4923368;29;20079;-74
2022/06/15 05:58:32;;;;;;;0.00;0.00;;;17.90;91.70;;;;;;4923305;29;20084;-73
2022/06/15 06:01:05;;;;;;;0.00;0.00;;;18.00;91.90;;;;;;4907574;29;20023;-73
2022/06/15 06:03:31;;;;;;;0.00;0.00;;;18.00;91.90;;;;;;4922806;29;20036;-72
2022/06/15 06:05:57;;;;;;;0.00;0.00;;;18.10;91.80;;;;;;4931470;29;20344;-76
2022/06/15 06:08:22;;;;;;;0.00;0.00;;;18.20;91.20;;;;;;4946562;29;20031;-72
2022/06/15 06:10:49;;;;;;;0.00;0.00;;;18.40;91.30;;;;;;4936885;29;20030;-74
2022/06/15 06:13:15;;;;;;;0.00;0.00;;;18.70;90.90;;;;;;4949871;28;20031;-73
2022/06/15 06:15:40;;;;;;;0.00;0.00;;;19.20;90.90;;;;;;4943262;29;20078;-73
2022/06/15 06:18:06;;;;;;;0.00;0.00;;;19.80;90.70;;;;;;4929784;29;20024;-77
2022/06/15 06:20:32;;;;;;;0.00;0.00;;;20.50;90.20;;;;;;4944599;29;20054;-72
2022/06/15 06:22:58;;;;;;;0.00;0.00;;;21.10;87.10;;;;;;4945402;29;20038;-74
2022/06/15 06:25:23;;;;;;;0.00;0.00;;;21.60;84.30;;;;;;4946621;29;20038;-72
2022/06/15 06:27:49;;;;;;;0.00;0.00;;;22.20;83.10;;;;;;4931811;29;20379;-74
2022/06/15 06:30:16;;;;;;;0.00;0.00;;;22.60;81.20;;;;;;4941816;29;20031;-73
2022/06/15 06:32:41;;;;;;;0.00;0.00;;;23.10;79.80;;;;;;4943802;29;20062;-73
2022/06/15 06:35:08;;;;;;;0.00;0.00;;;23.60;78.20;;;;;;4927727;29;20020;-73
2022/06/15 06:37:35;;;;;;;0.00;0.00;;;23.90;77.40;;;;;;4930350;29;20059;-72
2022/06/15 06:40:01;;;;;;;0.00;0.00;;;24.40;77.10;;;;;;4944403;29;20016;-73
2022/06/15 06:42:27;;;;;;;0.00;0.00;;;24.70;75.70;;;;;;4946213;29;20029;-72
2022/06/15 06:44:53;;;;;;;0.00;0.00;;;25.00;72.90;;;;;;4930541;29;20037;-72
2022/06/15 06:47:18;;;;;;;0.00;0.00;;;25.40;73.70;;;;;;4949578;29;20251;-73
2022/06/15 06:49:44;;;;;;;0.00;0.00;;;25.80;73.20;;;;;;4951497;29;20035;-72
2022/06/15 06:52:10;;;;;;;0.00;0.00;;;26.20;72.80;;;;;;4946210;29;20367;-75
2022/06/15 06:54:36;;;;;;;0.00;0.00;;;26.50;71.40;;;;;;4927112;29;20038;-72
2022/06/15 06:57:01;;;;;;;0.00;0.00;;;26.90;70.00;;;;;;4945312;29;20019;-76
2022/06/15 06:59:27;;;;;;;0.00;0.00;;;27.20;70.40;;;;;;4943230;29;20219;-72
2022/06/15 07:01:53;;;;;;;0.00;0.00;;;27.50;67.80;;;;;;4942359;29;20291;-72
2022/06/15 07:04:19;;;;;;;0.00;0.00;;;27.70;67.30;;;;;;4938381;29;20051;-72
2022/06/15 07:06:45;;;;;;;0.00;0.00;;;27.90;67.90;;;;;;4917519;29;20055;-72
2022/06/15 07:09:12;;;;;;;0.00;0.00;;;28.10;68.20;;;;;;4924749;29;20177;-73
2022/06/15 07:11:41;;;;;;;0.00;0.00;;;28.30;67.00;;;;;;4925424;29;20338;-76
2022/06/15 07:14:07;;;;;;;0.00;0.00;;;28.50;66.90;;;;;;4926549;29;21101;-73
2022/06/15 07:16:32;;;;;;;0.00;0.00;;;28.70;65.50;;;;;;4908927;29;20044;-74
2022/06/15 07:18:58;;;;;;;0.00;0.00;;;28.80;63.30;;;;;;4907849;29;20028;-72
2022/06/15 07:21:27;;;;;;;0.00;0.00;;;28.70;65.40;;;;;;4906724;29;20024;-73
2022/06/15 07:23:55;;;;;;;0.00;0.00;;;28.50;63.30;;;;;;4922553;29;20040;-72
2022/06/15 07:26:43;;;;;;;0.00;0.00;;;27.90;63.30;;;;;;4929696;29;20202;-77
2022/06/15 07:29:15;;;;;;;0.00;0.00;;;27.20;65.10;;;;;;4924491;29;20070;-71
2022/06/15 07:31:44;;;;;;;0.00;0.00;;;26.60;64.90;;;;;;4928194;29;20522;-72
2022/06/15 07:34:11;;;;;;;0.00;0.00;;;26.00;66.70;;;;;;4929682;29;20044;-80
2022/06/15 07:36:40;;;;;;;0.00;0.00;;;25.40;68.70;;;;;;4929260;29;20264;-73
2022/06/15 07:39:06;;;;;;;0.00;0.00;;;25.00;69.60;;;;;;4911015;29;20035;-73
2022/06/15 07:41:33;;;;;;;0.00;0.00;;;24.60;69.60;;;;;;4927291;29;20032;-71
2022/06/15 07:43:58;;;;;;;0.00;0.00;;;24.40;72.50;;;;;;4914921;29;20335;-73
2022/06/15 07:46:24;;;;;;;0.00;0.00;;;24.20;72.80;;;;;;4897633;29;20105;-76
2022/06/15 07:51:43;;;;;;;0.00;0.00;;;23.90;71.90;;;;;;4930140;29;20100;-71
2022/06/15 07:54:13;;;;;;;0.00;0.00;;;23.80;73.00;;;;;;4929981;29;20059;-74
2022/06/15 07:56:40;;;;;;;0.00;0.00;;;23.80;74.20;;;;;;4929951;29;20036;-71
2022/06/15 07:59:06;;;;;;;0.00;0.00;;;24.00;75.30;;;;;;4912575;29;20032;-71
2022/06/15 08:01:32;;;;;;;0.00;0.00;;;24.40;75.40;;;;;;4928329;29;20027;-73
2022/06/15 08:03:58;;;;;;;0.00;0.00;;;25.10;76.00;;;;;;4930734;29;20317;-72
2022/06/15 08:06:24;;;;;;;0.00;0.00;;;26.10;74.30;;;;;;4934965;28;20051;-72
2022/06/15 08:08:51;;;;;;;0.00;0.00;;;27.20;70.10;;;;;;4931869;29;20290;-78
2022/06/15 08:11:17;;;;;;;0.00;0.00;;;28.30;70.60;;;;;;4945090;28;20023;-73
2022/06/15 08:13:44;;;;;;;0.00;0.00;;;29.30;66.10;;;;;;4946995;29;20516;-73
2022/06/15 08:16:10;;;;;;;0.00;0.00;;;30.20;66.20;;;;;;4930619;29;20036;-78
2022/06/15 08:18:42;;;;;;;0.00;0.00;;;30.70;64.90;;;;;;4933408;29;20427;-73
2022/06/15 08:21:12;;;;;;;0.00;0.00;;;31.40;62.60;;;;;;4945052;28;20019;-74
2022/06/15 08:23:43;;;;;;;0.00;0.00;;;32.10;58.50;;;;;;4927019;29;20027;-74
2022/06/15 08:26:13;;;;;;;0.00;0.00;;;32.70;56.70;;;;;;4948246;28;20047;-73
2022/06/15 08:28:45;;;;;;;0.00;0.00;;;33.10;55.80;;;;;;4946816;29;20437;-75
2022/06/15 08:31:11;;;;;;;0.00;0.00;;;33.10;53.30;;;;;;4946219;29;20163;-77
2022/06/15 08:33:37;;;;;;;0.00;0.00;;;33.10;53.80;;;;;;4931181;29;20234;-73
2022/06/15 08:36:03;;;;;;;0.00;0.00;;;33.10;54.10;;;;;;4946200;29;20090;-75
2022/06/15 08:38:29;;;;;;;0.00;0.00;;;33.20;54.90;;;;;;4938817;29;20027;-75
2022/06/15 08:41:03;;;;;;;0.00;0.00;;;33.30;55.40;;;;;;4948784;29;20053;-74
2022/06/15 08:43:33;;;;;;;0.00;0.00;;;33.50;56.70;;;;;;4929298;29;20032;-75
2022/06/15 08:46:28;;;;;;;0.00;0.00;;;33.60;55.40;;;;;;4950920;29;20019;-77
2022/06/15 08:48:59;;;;;;;0.00;0.00;;;33.80;54.10;;;;;;4939728;29;20095;-79
2022/06/15 08:51:36;;;;;;;0.00;0.00;;;33.80;53.40;;;;;;4931961;29;20086;-72
2022/06/15 08:54:04;;;;;;;0.00;0.00;;;33.70;52.50;;;;;;4930215;29;20172;-72
2022/06/15 08:56:41;;;;;;;0.00;0.00;;;33.60;54.30;;;;;;4927618;29;20035;-75
2022/06/15 09:01:26;;;;;;;0.00;0.00;;;33.70;52.00;;;;;;5122954;27;20388;-75
2022/06/15 09:04:14;;;;;;;0.00;0.00;;;33.90;54.50;;;;;;5091380;28;20051;-75
2022/06/15 09:07:13;;;;;;;0.00;0.00;;;34.10;51.90;;;;;;5096683;28;20028;-80
2022/06/15 09:09:41;;;;;;;0.00;0.00;;;34.30;53.30;;;;;;5103932;28;20307;-78
2022/06/15 09:15:29;;;;;;;0.00;0.00;;;35.00;51.00;;;;;;5102211;28;20211;-74
2022/06/15 09:17:57;;;;;;;0.00;0.00;;;35.10;51.20;;;;;;5086922;28;20023;-75
2022/06/15 09:20:27;;;;;;;0.00;0.00;;;35.20;50.70;;;;;;5102738;28;20027;-74
2022/06/15 09:23:16;;;;;;;0.00;0.00;;;35.30;52.30;;;;;;5091532;28;20020;-74
2022/06/15 09:25:56;;;;;;;0.00;0.00;;;35.70;49.00;;;;;;5106944;28;20058;-75
2022/06/15 09:28:32;;;;;;;0.00;0.00;;;36.00;51.70;;;;;;5098017;28;20016;-75
2022/06/15 09:31:05;;;;;;;0.00;0.00;;;36.40;50.70;;;;;;5092627;28;20066;-75
2022/06/15 09:33:44;;;;;;;0.00;0.00;;;36.60;47.50;;;;;;5080246;28;20021;-75
2022/06/15 09:36:17;;;;;;;0.00;0.00;;;36.70;49.80;;;;;;5102332;28;20308;-76
2022/06/15 09:38:43;;;;;;;0.00;0.00;;;37.00;50.30;;;;;;5101174;28;20016;-76
2022/06/15 09:41:27;;;;;;;0.00;0.00;;;37.50;49.90;;;;;;5085849;28;20028;-73
2022/06/15 09:44:14;;;;;;;0.00;0.00;;;38.00;48.70;;;;;;5103598;28;20020;-75
2022/06/15 09:46:55;;;;;;;0.00;0.00;;;38.20;46.80;;;;;;5092667;28;20020;-79
2022/06/15 09:49:40;;;;;;;0.00;0.00;;;38.30;46.60;;;;;;5100220;28;20065;-75
2022/06/15 09:52:30;;;;;;;0.00;0.00;;;38.40;46.70;;;;;;5090087;28;20012;-75
2022/06/15 09:55:02;;;;;;;0.00;0.00;;;38.70;46.30;;;;;;5085215;28;20046;-79
2022/06/15 09:57:28;;;;;;;0.00;0.00;;;38.90;49.00;;;;;;5084230;28;20016;-79
2022/06/15 09:59:54;;;;;;;0.00;0.00;;;39.20;44.30;;;;;;5087754;28;20390;-76
2022/06/15 10:02:27;;;;;;;0.00;0.00;;;39.40;46.20;;;;;;5082665;28;20051;-77
2022/06/15 10:04:53;;;;;;;0.00;0.00;;;39.70;44.30;;;;;;5080518;28;20227;-77
2022/06/15 10:07:35;;;;;;;0.00;0.00;;;39.70;44.60;;;;;;5064417;28;20024;-78
2022/06/15 10:10:53;;;;;;;0.00;0.00;;;40.20;45.20;;;;;;5076810;28;20036;-75
2022/06/15 10:13:18;;;;;;;0.00;0.00;;;41.00;44.20;;;;;;5064058;28;20091;-75
2022/06/15 10:15:44;;;;;;;0.00;0.00;;;41.30;44.10;;;;;;5068141;28;20168;-76
2022/06/15 10:18:13;;;;;;;0.00;0.00;;;41.50;43.40;;;;;;5068384;28;20021;-78
2022/06/15 10:20:40;;;;;;;0.00;0.00;;;41.50;42.60;;;;;;5051080;28;20078;-75
2022/06/15 10:23:19;;;;;;;0.00;0.00;;;41.40;40.50;;;;;;5065784;28;20159;-75
2022/06/15 10:25:52;;;;;;;0.00;0.00;;;40.60;41.50;;;;;;5071339;28;20024;-75
2022/06/15 10:28:26;;;;;;;0.00;0.00;;;39.90;42.20;;;;;;5067138;28;20051;-74
2022/06/15 10:30:59;;;;;;;0.00;0.00;;;40.30;43.80;;;;;;5070043;28;20449;-74
2022/06/15 10:33:36;;;;;;;0.00;0.00;;;39.60;41.60;;;;;;5066463;28;20025;-76
2022/06/15 10:36:02;;;;;;;0.00;0.00;;;38.10;43.60;;;;;;5063684;28;20037;-74
2022/06/15 10:38:28;;;;;;;0.00;0.00;;;38.30;44.90;;;;;;5066645;28;20133;-75
2022/06/15 10:43:45;;;;;;;0.00;0.00;;;39.10;43.20;;;;;;5070002;28;20366;-74
2022/06/15 10:46:10;;;;;;;0.00;0.00;;;39.70;43.30;;;;;;5067834;28;20036;-75
2022/06/15 10:48:36;;;;;;;0.00;0.00;;;39.10;41.40;;;;;;5066842;28;20087;-76
2022/06/15 10:51:07;;;;;;;0.00;0.00;;;38.20;42.80;;;;;;5068651;28;20461;-74
2022/06/15 10:53:41;;;;;;;0.00;0.00;;;38.20;43.30;;;;;;5050554;28;20043;-75
2022/06/15 11:02:10;;;;;;;0.00;0.00;;;40.30;42.10;;;;;;5064044;28;19962;-76
2022/06/15 11:05:03;;;;;;;0.00;0.00;;;39.90;42.50;;;;;;5065428;28;20021;-76
2022/06/15 11:07:34;;;;;;;0.00;0.00;;;40.70;44.40;;;;;;5044263;28;20108;-74
2022/06/15 11:10:08;;;;;;;0.00;0.00;;;41.60;43.30;;;;;;5048996;28;20090;-80
2022/06/15 11:12:46;;;;;;;0.00;0.00;;;41.90;41.10;;;;;;5064179;28;20320;-75
2022/06/15 11:15:20;;;;;;;0.00;0.00;;;41.90;41.50;;;;;;5066641;28;20028;-74
2022/06/15 11:18:24;;;;;;;0.00;0.00;;;42.00;40.70;;;;;;5069733;28;20061;-75
2022/06/15 11:20:56;;;;;;;0.00;0.00;;;42.00;41.30;;;;;;5048792;28;20662;-76
2022/06/15 11:23:31;;;;;;;0.00;0.00;;;40.90;38.90;;;;;;5070612;28;20020;-76
2022/06/15 11:26:51;;;;;;;0.00;0.00;;;40.20;41.50;;;;;;5043903;28;20024;-75
2022/06/15 11:28:49;;;;;;;0.00;0.00;;;39.30;40.40;;;;;;5065942;28;20032;-75
2022/06/15 11:31:17;;;;;;;0.00;0.00;;;37.90;40.40;;;;;;5070781;28;20024;-76
2022/06/15 11:33:58;;;;;;;0.00;0.00;;;36.60;42.10;;;;;;5068095;28;20090;-75
2022/06/15 11:36:41;;;;;;;0.00;0.00;;;35.60;42.60;;;;;;5064519;28;20039;-75
2022/06/15 11:39:36;;;;;;;0.00;0.00;;;34.80;44.00;;;;;;5063190;28;20040;-77
2022/06/15 11:42:02;;;;;;;0.00;0.00;;;34.10;45.70;;;;;;5057441;28;20028;-76
2022/06/15 11:44:34;;;;;;;0.00;0.00;;;33.50;45.80;;;;;;5063353;28;20024;-79
2022/06/15 11:47:21;;;;;;;0.00;0.00;;;32.90;47.10;;;;;;5070167;28;20933;-79
2022/06/15 11:50:27;;;;;;;0.00;0.00;;;32.40;48.60;;;;;;5067352;28;20012;-78
2022/06/15 11:53:14;;;;;;;0.00;0.00;;;31.70;49.50;;;;;;5053958;28;20064;-77
2022/06/15 11:56:03;;;;;;;0.00;0.00;;;31.10;50.60;;;;;;5048775;28;20033;-78
2022/06/15 11:58:33;;;;;;;0.00;0.00;;;30.60;50.30;;;;;;5060862;28;20084;-76
2022/06/15 12:01:05;;;;;;;0.00;0.00;;;30.10;51.20;;;;;;5065476;28;20521;-76
2022/06/15 12:04:08;;;;;;;0.00;0.00;;;29.70;51.80;;;;;;5045335;28;20091;-76
2022/06/15 12:06:46;;;;;;;0.00;0.00;;;29.40;51.90;;;;;;5047835;28;20020;-76
2022/06/15 12:09:35;;;;;;;0.00;0.00;;;29.10;52.70;;;;;;5063256;28;20053;-74
2022/06/15 12:12:37;;;;;;;0.00;0.00;;;28.80;53.80;;;;;;5058121;28;20067;-77
2022/06/15 12:15:37;;;;;;;0.00;0.00;;;28.50;54.70;;;;;;5049760;28;20228;-76
2022/06/15 12:18:11;;;;;;;0.00;0.00;;;28.30;55.10;;;;;;5072939;28;20021;-77
2022/06/15 12:21:07;;;;;;;0.00;0.00;;;28.20;54.70;;;;;;5045512;28;20040;-76
2022/06/15 12:23:58;;;;;;;0.00;0.00;;;28.10;55.30;;;;;;5063297;28;20273;-76
2022/06/15 12:26:39;;;;;;;0.00;0.00;;;27.90;55.50;;;;;;5063043;28;20024;-75
2022/06/15 12:29:25;;;;;;;0.00;0.00;;;27.70;56.80;;;;;;5054179;28;20048;-75
2022/06/15 12:32:45;;;;;;;0.00;0.00;;;27.60;57.90;;;;;;5044893;28;20295;-75
2022/06/15 12:35:11;;;;;;;0.00;0.00;;;27.60;57.70;;;;;;5054976;28;20110;-75
2022/06/15 12:37:56;;;;;;;0.00;0.00;;;27.60;56.20;;;;;;5039954;28;20020;-75
2022/06/15 12:40:33;;;;;;;0.00;0.00;;;27.50;56.60;;;;;;5047531;28;20033;-76
2022/06/15 12:43:11;;;;;;;0.00;0.00;;;27.50;58.70;;;;;;5046851;28;20170;-76
2022/06/15 12:45:45;;;;;;;0.00;0.00;;;27.50;58.50;;;;;;5040891;28;20020;-76
2022/06/15 12:48:38;;;;;;;0.00;0.00;;;27.50;58.40;;;;;;5057488;28;20029;-76
2022/06/15 12:51:18;;;;;;;0.00;0.00;;;27.40;58.60;;;;;;5057240;28;20033;-77
2022/06/15 12:54:01;;;;;;;0.00;0.00;;;27.40;59.00;;;;;;5067597;28;20345;-77
2022/06/15 12:56:57;;;;;;;0.00;0.00;;;27.30;57.70;;;;;;5063834;28;20023;-76
2022/06/15 12:59:37;;;;;;;0.00;0.00;;;27.30;57.60;;;;;;5063334;28;20339;-77
2022/06/15 13:02:36;;;;;;;0.00;0.00;;;27.30;58.40;;;;;;5063785;28;20047;-77
2022/06/15 13:05:10;;;;;;;0.00;0.00;;;27.20;57.70;;;;;;5014729;28;20025;-77
2022/06/15 13:07:38;;;;;;;0.00;0.00;;;27.20;58.30;;;;;;5067010;28;20308;-76
2022/06/15 13:10:07;;;;;;;0.00;0.00;;;27.30;57.70;;;;;;5043654;28;20029;-77
2022/06/15 13:12:34;;;;;;;0.00;0.00;;;27.20;58.20;;;;;;5046478;28;20104;-77
2022/06/15 13:15:00;;;;;;;0.00;0.00;;;27.30;57.70;;;;;;5043468;28;20056;-79
2022/06/15 13:18:04;;;;;;;0.00;0.00;;;27.30;57.60;;;;;;5061369;28;20095;-77
2022/06/15 13:20:30;;;;;;;0.00;0.00;;;27.40;58.30;;;;;;5059751;28;20032;-77
2022/06/15 13:22:56;;;;;;;0.00;0.00;;;27.30;58.00;;;;;;5062790;28;20088;-77
2022/06/15 13:25:22;;;;;;;0.00;0.00;;;27.30;57.50;;;;;;5046665;28;20039;-77
2022/06/15 13:28:11;;;;;;;0.00;0.00;;;27.20;58.40;;;;;;5059609;28;20036;-75
2022/06/15 13:30:48;;;;;;;0.00;0.00;;;27.20;58.30;;;;;;5044857;28;20145;-76
2022/06/15 13:33:15;;;;;;;0.00;0.00;;;27.10;58.10;;;;;;5044209;28;20244;-75
2022/06/15 13:35:44;;;;;;;0.00;0.00;;;27.00;59.70;;;;;;5062778;28;20212;-76
2022/06/15 13:38:31;;;;;;;0.00;0.00;;;27.00;59.50;;;;;;5061171;28;20652;-78